sensor_id;sensor_type;location;lat;lon;timestamp;P1;durP1;ratioP1;P2;durP2;ratioP2
82628;SDS011;72298;49.640;20.652;2023-10-19T00:01:07;15.02;;;6.45;;
82628;SDS011;72298;49.640;20.652;2023-10-19T00:03:34;16.58;;;6.70;;
82628;SDS011;72298;49.640;20.652;2023-10-19T00:06:00;14.85;;;6.63;;
82628;SDS011;72298;49.640;20.652;2023-10-19T00:08:25;16.45;;;6.45;;
82628;SDS011;72298;49.640;20.652;2023-10-19T00:11:01;10.52;;;5.60;;
82628;SDS011;72298;49.640;20.652;2023-10-19T00:13:49;14.00;;;6.55;;
82628;SDS011;72298;49.640;20.652;2023-10-19T00:16:15;12.38;;;5.85;;
82628;SDS011;72298;49.640;20.652;2023-10-19T00:18:42;12.25;;;5.50;;
82628;SDS011;72298;49.640;20.652;2023-10-19T00:21:09;15.73;;;6.28;;
82628;SDS011;72298;49.640;20.652;2023-10-19T00:23:56;11.18;;;5.70;;
82628;SDS011;72298;49.640;20.652;2023-10-19T00:26:23;14.85;;;6.05;;
82628;SDS011;72298;49.640;20.652;2023-10-19T00:28:54;14.45;;;6.70;;
82628;SDS011;72298;49.640;20.652;2023-10-19T00:31:23;11.27;;;5.15;;
82628;SDS011;72298;49.640;20.652;2023-10-19T00:33:59;8.70;;;4.70;;
82628;SDS011;72298;49.640;20.652;2023-10-19T00:36:26;10.75;;;5.80;;
82628;SDS011;72298;49.640;20.652;2023-10-19T00:38:51;12.48;;;6.60;;
82628;SDS011;72298;49.640;20.652;2023-10-19T00:41:20;10.80;;;5.50;;
82628;SDS011;72298;49.640;20.652;2023-10-19T00:43:49;12.05;;;5.47;;
82628;SDS011;72298;49.640;20.652;2023-10-19T00:46:22;12.38;;;6.38;;
82628;SDS011;72298;49.640;20.652;2023-10-19T00:48:56;10.88;;;5.97;;
82628;SDS011;72298;49.640;20.652;2023-10-19T00:51:29;10.63;;;5.45;;
82628;SDS011;72298;49.640;20.652;2023-10-19T00:54:04;9.25;;;5.53;;
82628;SDS011;72298;49.640;20.652;2023-10-19T00:56:35;8.35;;;5.25;;
82628;SDS011;72298;49.640;20.652;2023-10-19T00:59:02;10.27;;;5.93;;
82628;SDS011;72298;49.640;20.652;2023-10-19T01:01:38;9.48;;;5.07;;
82628;SDS011;72298;49.640;20.652;2023-10-19T01:04:09;9.38;;;4.95;;
82628;SDS011;72298;49.640;20.652;2023-10-19T01:06:40;14.95;;;5.40;;
82628;SDS011;72298;49.640;20.652;2023-10-19T01:09:10;12.52;;;5.20;;
82628;SDS011;72298;49.640;20.652;2023-10-19T01:11:43;12.23;;;6.03;;
82628;SDS011;72298;49.640;20.652;2023-10-19T01:14:18;12.70;;;5.93;;
82628;SDS011;72298;49.640;20.652;2023-10-19T01:16:46;10.68;;;5.25;;
82628;SDS011;72298;49.640;20.652;2023-10-19T01:19:13;11.55;;;6.13;;
82628;SDS011;72298;49.640;20.652;2023-10-19T01:21:44;10.25;;;6.15;;
82628;SDS011;72298;49.640;20.652;2023-10-19T01:24:18;9.63;;;4.28;;
82628;SDS011;72298;49.640;20.652;2023-10-19T01:26:46;8.80;;;5.25;;
82628;SDS011;72298;49.640;20.652;2023-10-19T01:29:12;12.10;;;5.32;;
82628;SDS011;72298;49.640;20.652;2023-10-19T01:31:42;13.25;;;5.40;;
82628;SDS011;72298;49.640;20.652;2023-10-19T01:34:21;9.65;;;4.55;;
82628;SDS011;72298;49.640;20.652;2023-10-19T01:36:47;10.15;;;5.03;;
82628;SDS011;72298;49.640;20.652;2023-10-19T01:39:15;13.27;;;5.03;;
82628;SDS011;72298;49.640;20.652;2023-10-19T01:41:44;14.20;;;5.80;;
82628;SDS011;72298;49.640;20.652;2023-10-19T01:44:10;10.05;;;6.20;;
82628;SDS011;72298;49.640;20.652;2023-10-19T01:46:38;9.93;;;5.28;;
82628;SDS011;72298;49.640;20.652;2023-10-19T01:49:04;23.77;;;5.57;;
82628;SDS011;72298;49.640;20.652;2023-10-19T01:51:31;13.93;;;5.40;;
82628;SDS011;72298;49.640;20.652;2023-10-19T01:53:58;12.50;;;5.07;;
82628;SDS011;72298;49.640;20.652;2023-10-19T01:56:26;12.80;;;5.80;;
82628;SDS011;72298;49.640;20.652;2023-10-19T01:58:52;14.98;;;5.40;;
82628;SDS011;72298;49.640;20.652;2023-10-19T02:01:19;11.88;;;5.43;;
82628;SDS011;72298;49.640;20.652;2023-10-19T02:03:51;11.32;;;5.97;;
82628;SDS011;72298;49.640;20.652;2023-10-19T02:06:23;11.10;;;5.88;;
82628;SDS011;72298;49.640;20.652;2023-10-19T02:08:57;8.57;;;5.45;;
82628;SDS011;72298;49.640;20.652;2023-10-19T02:11:56;14.15;;;5.30;;
82628;SDS011;72298;49.640;20.652;2023-10-19T02:14:23;11.52;;;5.10;;
82628;SDS011;72298;49.640;20.652;2023-10-19T02:16:51;8.60;;;5.00;;
82628;SDS011;72298;49.640;20.652;2023-10-19T02:19:18;9.75;;;5.28;;
82628;SDS011;72298;49.640;20.652;2023-10-19T02:21:45;12.00;;;5.13;;
82628;SDS011;72298;49.640;20.652;2023-10-19T02:24:13;11.93;;;5.15;;
82628;SDS011;72298;49.640;20.652;2023-10-19T02:26:42;12.98;;;5.93;;
82628;SDS011;72298;49.640;20.652;2023-10-19T02:29:08;10.65;;;5.30;;
82628;SDS011;72298;49.640;20.652;2023-10-19T02:31:38;14.77;;;5.45;;
82628;SDS011;72298;49.640;20.652;2023-10-19T02:34:08;13.02;;;5.20;;
82628;SDS011;72298;49.640;20.652;2023-10-19T02:36:35;14.82;;;6.82;;
82628;SDS011;72298;49.640;20.652;2023-10-19T02:39:06;10.48;;;5.43;;
82628;SDS011;72298;49.640;20.652;2023-10-19T02:41:39;13.98;;;5.88;;
82628;SDS011;72298;49.640;20.652;2023-10-19T02:44:10;8.98;;;5.70;;
82628;SDS011;72298;49.640;20.652;2023-10-19T02:46:51;14.35;;;5.65;;
82628;SDS011;72298;49.640;20.652;2023-10-19T02:49:21;12.52;;;6.15;;
82628;SDS011;72298;49.640;20.652;2023-10-19T02:51:48;12.10;;;6.47;;
82628;SDS011;72298;49.640;20.652;2023-10-19T02:54:15;13.93;;;6.53;;
82628;SDS011;72298;49.640;20.652;2023-10-19T02:56:45;8.88;;;5.32;;
82628;SDS011;72298;49.640;20.652;2023-10-19T02:59:13;12.90;;;6.03;;
82628;SDS011;72298;49.640;20.652;2023-10-19T03:01:41;13.40;;;5.90;;
82628;SDS011;72298;49.640;20.652;2023-10-19T03:04:09;13.32;;;7.25;;
82628;SDS011;72298;49.640;20.652;2023-10-19T03:06:37;18.85;;;7.03;;
82628;SDS011;72298;49.640;20.652;2023-10-19T03:09:05;15.18;;;7.28;;
82628;SDS011;72298;49.640;20.652;2023-10-19T03:11:52;11.57;;;6.45;;
82628;SDS011;72298;49.640;20.652;2023-10-19T03:14:18;13.98;;;6.55;;
82628;SDS011;72298;49.640;20.652;2023-10-19T03:16:44;10.93;;;6.38;;
82628;SDS011;72298;49.640;20.652;2023-10-19T03:19:10;10.07;;;5.93;;
82628;SDS011;72298;49.640;20.652;2023-10-19T03:21:38;13.35;;;6.65;;
82628;SDS011;72298;49.640;20.652;2023-10-19T03:24:14;14.57;;;6.70;;
82628;SDS011;72298;49.640;20.652;2023-10-19T03:27:00;12.35;;;6.75;;
82628;SDS011;72298;49.640;20.652;2023-10-19T03:29:27;12.50;;;6.93;;
82628;SDS011;72298;49.640;20.652;2023-10-19T03:32:04;10.60;;;5.70;;
82628;SDS011;72298;49.640;20.652;2023-10-19T03:34:31;12.00;;;5.90;;
82628;SDS011;72298;49.640;20.652;2023-10-19T03:36:57;12.88;;;6.45;;
82628;SDS011;72298;49.640;20.652;2023-10-19T03:39:31;10.70;;;6.57;;
82628;SDS011;72298;49.640;20.652;2023-10-19T03:41:58;12.65;;;7.07;;
82628;SDS011;72298;49.640;20.652;2023-10-19T03:44:24;11.43;;;5.80;;
82628;SDS011;72298;49.640;20.652;2023-10-19T03:46:50;9.55;;;5.85;;
82628;SDS011;72298;49.640;20.652;2023-10-19T03:49:22;13.65;;;6.57;;
82628;SDS011;72298;49.640;20.652;2023-10-19T03:51:52;11.38;;;5.85;;
82628;SDS011;72298;49.640;20.652;2023-10-19T03:54:27;13.73;;;6.70;;
82628;SDS011;72298;49.640;20.652;2023-10-19T03:56:53;15.43;;;7.32;;
82628;SDS011;72298;49.640;20.652;2023-10-19T03:59:21;15.73;;;7.35;;
82628;SDS011;72298;49.640;20.652;2023-10-19T04:01:48;13.45;;;7.60;;
82628;SDS011;72298;49.640;20.652;2023-10-19T04:04:14;14.20;;;6.80;;
82628;SDS011;72298;49.640;20.652;2023-10-19T04:06:41;15.50;;;7.13;;
82628;SDS011;72298;49.640;20.652;2023-10-19T04:09:12;11.88;;;6.72;;
82628;SDS011;72298;49.640;20.652;2023-10-19T04:11:42;11.10;;;6.38;;
82628;SDS011;72298;49.640;20.652;2023-10-19T04:14:14;13.45;;;7.78;;
82628;SDS011;72298;49.640;20.652;2023-10-19T04:16:41;13.32;;;6.65;;
82628;SDS011;72298;49.640;20.652;2023-10-19T04:19:10;12.85;;;7.25;;
82628;SDS011;72298;49.640;20.652;2023-10-19T04:21:36;14.45;;;7.78;;
82628;SDS011;72298;49.640;20.652;2023-10-19T04:24:09;15.90;;;7.22;;
82628;SDS011;72298;49.640;20.652;2023-10-19T04:26:35;16.50;;;8.15;;
82628;SDS011;72298;49.640;20.652;2023-10-19T04:29:04;19.40;;;8.07;;
82628;SDS011;72298;49.640;20.652;2023-10-19T04:31:40;16.42;;;6.95;;
82628;SDS011;72298;49.640;20.652;2023-10-19T04:34:15;16.35;;;7.88;;
82628;SDS011;72298;49.640;20.652;2023-10-19T04:36:46;16.50;;;7.63;;
82628;SDS011;72298;49.640;20.652;2023-10-19T04:39:12;12.43;;;6.97;;
82628;SDS011;72298;49.640;20.652;2023-10-19T04:41:42;13.23;;;7.72;;
82628;SDS011;72298;49.640;20.652;2023-10-19T04:44:09;18.13;;;7.63;;
82628;SDS011;72298;49.640;20.652;2023-10-19T04:46:35;20.00;;;8.38;;
82628;SDS011;72298;49.640;20.652;2023-10-19T04:49:01;14.23;;;8.10;;
82628;SDS011;72298;49.640;20.652;2023-10-19T04:51:28;16.30;;;8.15;;
82628;SDS011;72298;49.640;20.652;2023-10-19T04:53:54;15.57;;;8.80;;
82628;SDS011;72298;49.640;20.652;2023-10-19T04:56:20;18.40;;;8.27;;
82628;SDS011;72298;49.640;20.652;2023-10-19T04:58:46;19.35;;;7.75;;
82628;SDS011;72298;49.640;20.652;2023-10-19T05:01:12;14.63;;;7.65;;
82628;SDS011;72298;49.640;20.652;2023-10-19T05:03:40;14.45;;;7.35;;
82628;SDS011;72298;49.640;20.652;2023-10-19T05:06:06;15.75;;;8.38;;
82628;SDS011;72298;49.640;20.652;2023-10-19T05:08:32;17.48;;;7.53;;
82628;SDS011;72298;49.640;20.652;2023-10-19T05:10:58;18.30;;;9.35;;
82628;SDS011;72298;49.640;20.652;2023-10-19T05:13:27;13.55;;;7.75;;
82628;SDS011;72298;49.640;20.652;2023-10-19T05:15:55;16.45;;;8.88;;
82628;SDS011;72298;49.640;20.652;2023-10-19T05:18:23;17.77;;;7.88;;
82628;SDS011;72298;49.640;20.652;2023-10-19T05:20:50;18.63;;;8.13;;
82628;SDS011;72298;49.640;20.652;2023-10-19T05:23:23;18.10;;;8.85;;
82628;SDS011;72298;49.640;20.652;2023-10-19T05:25:50;16.02;;;7.22;;
82628;SDS011;72298;49.640;20.652;2023-10-19T05:28:19;18.30;;;8.73;;
82628;SDS011;72298;49.640;20.652;2023-10-19T05:33:14;13.80;;;7.70;;
82628;SDS011;72298;49.640;20.652;2023-10-19T05:35:40;17.70;;;7.70;;
82628;SDS011;72298;49.640;20.652;2023-10-19T05:38:08;12.60;;;7.38;;
82628;SDS011;72298;49.640;20.652;2023-10-19T05:40:33;15.65;;;8.18;;
82628;SDS011;72298;49.640;20.652;2023-10-19T05:43:01;12.82;;;6.97;;
82628;SDS011;72298;49.640;20.652;2023-10-19T05:45:27;14.15;;;7.35;;
82628;SDS011;72298;49.640;20.652;2023-10-19T05:47:56;17.02;;;6.85;;
82628;SDS011;72298;49.640;20.652;2023-10-19T05:50:22;15.48;;;7.82;;
82628;SDS011;72298;49.640;20.652;2023-10-19T05:52:49;13.27;;;7.05;;
82628;SDS011;72298;49.640;20.652;2023-10-19T05:55:14;11.75;;;6.90;;
82628;SDS011;72298;49.640;20.652;2023-10-19T05:57:40;14.40;;;7.68;;
82628;SDS011;72298;49.640;20.652;2023-10-19T06:00:10;15.88;;;8.15;;
82628;SDS011;72298;49.640;20.652;2023-10-19T06:02:44;15.13;;;7.55;;
82628;SDS011;72298;49.640;20.652;2023-10-19T06:05:11;14.75;;;7.45;;
82628;SDS011;72298;49.640;20.652;2023-10-19T06:07:37;12.57;;;7.00;;
82628;SDS011;72298;49.640;20.652;2023-10-19T06:10:03;13.32;;;6.97;;
82628;SDS011;72298;49.640;20.652;2023-10-19T06:12:32;13.38;;;6.90;;
82628;SDS011;72298;49.640;20.652;2023-10-19T06:14:58;14.30;;;7.80;;
82628;SDS011;72298;49.640;20.652;2023-10-19T06:17:28;17.30;;;8.57;;
82628;SDS011;72298;49.640;20.652;2023-10-19T06:19:54;14.07;;;7.75;;
82628;SDS011;72298;49.640;20.652;2023-10-19T06:22:20;14.70;;;7.88;;
82628;SDS011;72298;49.640;20.652;2023-10-19T06:24:46;13.82;;;6.55;;
82628;SDS011;72298;49.640;20.652;2023-10-19T06:27:11;16.83;;;7.15;;
82628;SDS011;72298;49.640;20.652;2023-10-19T06:29:37;17.45;;;7.32;;
82628;SDS011;72298;49.640;20.652;2023-10-19T06:32:02;11.32;;;6.95;;
82628;SDS011;72298;49.640;20.652;2023-10-19T06:34:28;14.20;;;6.95;;
82628;SDS011;72298;49.640;20.652;2023-10-19T06:36:54;13.88;;;6.65;;
82628;SDS011;72298;49.640;20.652;2023-10-19T06:39:20;15.30;;;7.60;;
82628;SDS011;72298;49.640;20.652;2023-10-19T06:41:46;16.35;;;7.72;;
82628;SDS011;72298;49.640;20.652;2023-10-19T06:44:13;13.13;;;6.88;;
82628;SDS011;72298;49.640;20.652;2023-10-19T06:46:38;12.75;;;6.90;;
82628;SDS011;72298;49.640;20.652;2023-10-19T06:49:04;13.40;;;6.55;;
82628;SDS011;72298;49.640;20.652;2023-10-19T06:51:31;10.13;;;6.18;;
82628;SDS011;72298;49.640;20.652;2023-10-19T06:53:58;10.82;;;6.35;;
82628;SDS011;72298;49.640;20.652;2023-10-19T06:56:24;13.77;;;7.25;;
82628;SDS011;72298;49.640;20.652;2023-10-19T06:58:50;13.85;;;6.53;;
82628;SDS011;72298;49.640;20.652;2023-10-19T07:01:15;12.18;;;6.13;;
82628;SDS011;72298;49.640;20.652;2023-10-19T07:03:48;15.05;;;6.47;;
82628;SDS011;72298;49.640;20.652;2023-10-19T07:06:13;10.52;;;5.97;;
82628;SDS011;72298;49.640;20.652;2023-10-19T07:08:40;15.48;;;6.88;;
82628;SDS011;72298;49.640;20.652;2023-10-19T07:11:09;13.13;;;6.57;;
82628;SDS011;72298;49.640;20.652;2023-10-19T07:13:35;12.18;;;5.93;;
82628;SDS011;72298;49.640;20.652;2023-10-19T07:16:00;16.23;;;6.40;;
82628;SDS011;72298;49.640;20.652;2023-10-19T07:18:28;14.23;;;6.07;;
82628;SDS011;72298;49.640;20.652;2023-10-19T07:20:54;11.38;;;6.97;;
82628;SDS011;72298;49.640;20.652;2023-10-19T07:23:27;11.30;;;5.88;;
82628;SDS011;72298;49.640;20.652;2023-10-19T07:25:53;14.52;;;5.85;;
82628;SDS011;72298;49.640;20.652;2023-10-19T07:28:21;9.25;;;5.65;;
82628;SDS011;72298;49.640;20.652;2023-10-19T07:30:49;7.63;;;5.18;;
82628;SDS011;72298;49.640;20.652;2023-10-19T07:33:17;10.68;;;6.32;;
82628;SDS011;72298;49.640;20.652;2023-10-19T07:35:43;9.70;;;5.55;;
82628;SDS011;72298;49.640;20.652;2023-10-19T07:38:14;13.82;;;5.97;;
82628;SDS011;72298;49.640;20.652;2023-10-19T07:40:41;12.75;;;7.00;;
82628;SDS011;72298;49.640;20.652;2023-10-19T07:43:08;10.45;;;5.53;;
82628;SDS011;72298;49.640;20.652;2023-10-19T07:45:35;13.30;;;6.78;;
82628;SDS011;72298;49.640;20.652;2023-10-19T07:48:02;12.32;;;6.80;;
82628;SDS011;72298;49.640;20.652;2023-10-19T07:50:34;10.23;;;5.03;;
82628;SDS011;72298;49.640;20.652;2023-10-19T07:53:00;9.95;;;5.43;;
82628;SDS011;72298;49.640;20.652;2023-10-19T07:55:27;9.10;;;5.20;;
82628;SDS011;72298;49.640;20.652;2023-10-19T07:57:52;11.38;;;5.88;;
82628;SDS011;72298;49.640;20.652;2023-10-19T08:00:19;7.72;;;5.13;;
82628;SDS011;72298;49.640;20.652;2023-10-19T08:02:45;9.48;;;5.07;;
82628;SDS011;72298;49.640;20.652;2023-10-19T08:05:14;10.85;;;4.75;;
82628;SDS011;72298;49.640;20.652;2023-10-19T08:07:41;10.48;;;5.18;;
82628;SDS011;72298;49.640;20.652;2023-10-19T08:10:12;9.85;;;5.95;;
82628;SDS011;72298;49.640;20.652;2023-10-19T08:12:41;12.23;;;4.95;;
82628;SDS011;72298;49.640;20.652;2023-10-19T08:15:10;8.75;;;4.97;;
82628;SDS011;72298;49.640;20.652;2023-10-19T08:17:37;9.50;;;5.03;;
82628;SDS011;72298;49.640;20.652;2023-10-19T08:20:04;9.45;;;4.80;;
82628;SDS011;72298;49.640;20.652;2023-10-19T08:22:34;9.02;;;5.30;;
82628;SDS011;72298;49.640;20.652;2023-10-19T08:24:59;9.55;;;5.03;;
82628;SDS011;72298;49.640;20.652;2023-10-19T08:27:25;11.38;;;5.00;;
82628;SDS011;72298;49.640;20.652;2023-10-19T08:29:50;10.43;;;5.15;;
82628;SDS011;72298;49.640;20.652;2023-10-19T08:32:16;8.98;;;4.78;;
82628;SDS011;72298;49.640;20.652;2023-10-19T08:34:41;7.47;;;4.78;;
82628;SDS011;72298;49.640;20.652;2023-10-19T08:37:07;7.00;;;4.53;;
82628;SDS011;72298;49.640;20.652;2023-10-19T08:39:33;10.93;;;4.55;;
82628;SDS011;72298;49.640;20.652;2023-10-19T08:42:02;8.23;;;4.40;;
82628;SDS011;72298;49.640;20.652;2023-10-19T08:44:29;8.23;;;4.40;;
82628;SDS011;72298;49.640;20.652;2023-10-19T08:46:55;6.05;;;3.85;;
82628;SDS011;72298;49.640;20.652;2023-10-19T08:49:22;6.63;;;4.20;;
82628;SDS011;72298;49.640;20.652;2023-10-19T08:51:48;9.40;;;4.38;;
82628;SDS011;72298;49.640;20.652;2023-10-19T08:54:14;8.00;;;4.50;;
82628;SDS011;72298;49.640;20.652;2023-10-19T08:56:40;9.40;;;4.90;;
82628;SDS011;72298;49.640;20.652;2023-10-19T08:59:07;19.88;;;5.30;;
82628;SDS011;72298;49.640;20.652;2023-10-19T09:01:33;7.70;;;5.15;;
82628;SDS011;72298;49.640;20.652;2023-10-19T09:06:26;8.38;;;5.05;;
82628;SDS011;72298;49.640;20.652;2023-10-19T09:08:54;15.32;;;4.50;;
82628;SDS011;72298;49.640;20.652;2023-10-19T09:11:20;6.60;;;4.03;;
82628;SDS011;72298;49.640;20.652;2023-10-19T09:13:52;9.27;;;4.25;;
82628;SDS011;72298;49.640;20.652;2023-10-19T09:16:18;5.85;;;3.72;;
82628;SDS011;72298;49.640;20.652;2023-10-19T09:18:45;8.90;;;3.70;;
82628;SDS011;72298;49.640;20.652;2023-10-19T09:21:15;7.15;;;3.60;;
82628;SDS011;72298;49.640;20.652;2023-10-19T09:23:51;5.82;;;3.88;;
82628;SDS011;72298;49.640;20.652;2023-10-19T09:26:17;5.95;;;3.83;;
82628;SDS011;72298;49.640;20.652;2023-10-19T09:28:46;6.57;;;3.70;;
82628;SDS011;72298;49.640;20.652;2023-10-19T09:31:13;6.20;;;3.47;;
82628;SDS011;72298;49.640;20.652;2023-10-19T09:33:41;5.72;;;3.58;;
82628;SDS011;72298;49.640;20.652;2023-10-19T09:36:09;5.47;;;3.60;;
82628;SDS011;72298;49.640;20.652;2023-10-19T09:38:59;7.80;;;3.40;;
82628;SDS011;72298;49.640;20.652;2023-10-19T09:41:24;5.63;;;3.63;;
82628;SDS011;72298;49.640;20.652;2023-10-19T09:43:54;7.30;;;3.78;;
82628;SDS011;72298;49.640;20.652;2023-10-19T09:46:31;6.90;;;3.35;;
82628;SDS011;72298;49.640;20.652;2023-10-19T09:48:57;5.63;;;3.45;;
82628;SDS011;72298;49.640;20.652;2023-10-19T09:51:23;5.32;;;3.22;;
82628;SDS011;72298;49.640;20.652;2023-10-19T09:54:14;4.95;;;2.85;;
82628;SDS011;72298;49.640;20.652;2023-10-19T09:56:49;5.43;;;3.30;;
82628;SDS011;72298;49.640;20.652;2023-10-19T09:59:32;5.10;;;3.03;;
82628;SDS011;72298;49.640;20.652;2023-10-19T10:04:38;5.65;;;3.53;;
82628;SDS011;72298;49.640;20.652;2023-10-19T10:07:05;5.45;;;3.30;;
82628;SDS011;72298;49.640;20.652;2023-10-19T10:09:35;4.05;;;2.55;;
82628;SDS011;72298;49.640;20.652;2023-10-19T10:12:18;6.05;;;3.28;;
82628;SDS011;72298;49.640;20.652;2023-10-19T10:14:53;5.30;;;3.13;;
82628;SDS011;72298;49.640;20.652;2023-10-19T10:17:27;5.75;;;2.92;;
82628;SDS011;72298;49.640;20.652;2023-10-19T10:19:54;5.10;;;3.63;;
82628;SDS011;72298;49.640;20.652;2023-10-19T10:22:22;6.40;;;3.53;;
82628;SDS011;72298;49.640;20.652;2023-10-19T10:24:48;8.30;;;3.60;;
82628;SDS011;72298;49.640;20.652;2023-10-19T10:27:20;6.38;;;3.70;;
82628;SDS011;72298;49.640;20.652;2023-10-19T10:29:55;5.15;;;3.10;;
82628;SDS011;72298;49.640;20.652;2023-10-19T10:40:47;5.38;;;3.15;;
82628;SDS011;72298;49.640;20.652;2023-10-19T10:43:16;5.03;;;2.95;;
82628;SDS011;72298;49.640;20.652;2023-10-19T10:45:43;7.85;;;3.25;;
82628;SDS011;72298;49.640;20.652;2023-10-19T10:48:15;6.18;;;3.67;;
82628;SDS011;72298;49.640;20.652;2023-10-19T10:50:41;7.75;;;3.13;;
82628;SDS011;72298;49.640;20.652;2023-10-19T10:53:08;5.60;;;3.75;;
82628;SDS011;72298;49.640;20.652;2023-10-19T10:55:36;5.10;;;3.10;;
82628;SDS011;72298;49.640;20.652;2023-10-19T10:58:02;5.68;;;3.95;;
82628;SDS011;72298;49.640;20.652;2023-10-19T11:00:28;5.72;;;3.30;;
82628;SDS011;72298;49.640;20.652;2023-10-19T11:02:59;6.05;;;3.05;;
82628;SDS011;72298;49.640;20.652;2023-10-19T11:05:26;6.47;;;3.88;;
82628;SDS011;72298;49.640;20.652;2023-10-19T11:10:35;4.75;;;3.53;;
82628;SDS011;72298;49.640;20.652;2023-10-19T11:15:27;6.65;;;3.42;;
82628;SDS011;72298;49.640;20.652;2023-10-19T11:17:53;6.35;;;3.20;;
82628;SDS011;72298;49.640;20.652;2023-10-19T11:20:22;6.13;;;3.40;;
82628;SDS011;72298;49.640;20.652;2023-10-19T11:22:49;5.93;;;3.00;;
82628;SDS011;72298;49.640;20.652;2023-10-19T11:25:19;5.03;;;3.20;;
82628;SDS011;72298;49.640;20.652;2023-10-19T11:27:46;6.15;;;3.30;;
82628;SDS011;72298;49.640;20.652;2023-10-19T11:30:22;6.45;;;3.47;;
82628;SDS011;72298;49.640;20.652;2023-10-19T11:32:48;6.00;;;3.13;;
82628;SDS011;72298;49.640;20.652;2023-10-19T11:35:18;5.07;;;3.15;;
82628;SDS011;72298;49.640;20.652;2023-10-19T11:37:50;6.18;;;3.03;;
82628;SDS011;72298;49.640;20.652;2023-10-19T11:40:21;6.30;;;3.70;;
82628;SDS011;72298;49.640;20.652;2023-10-19T11:45:13;6.45;;;3.67;;
82628;SDS011;72298;49.640;20.652;2023-10-19T11:47:41;6.40;;;2.70;;
82628;SDS011;72298;49.640;20.652;2023-10-19T11:50:08;4.50;;;2.90;;
82628;SDS011;72298;49.640;20.652;2023-10-19T11:52:37;5.50;;;3.30;;
82628;SDS011;72298;49.640;20.652;2023-10-19T11:55:03;4.80;;;2.80;;
82628;SDS011;72298;49.640;20.652;2023-10-19T11:57:31;7.38;;;3.22;;
82628;SDS011;72298;49.640;20.652;2023-10-19T12:02:24;4.53;;;2.80;;
82628;SDS011;72298;49.640;20.652;2023-10-19T12:04:50;6.43;;;3.38;;
82628;SDS011;72298;49.640;20.652;2023-10-19T12:07:15;6.82;;;3.40;;
82628;SDS011;72298;49.640;20.652;2023-10-19T12:09:41;5.47;;;3.10;;
82628;SDS011;72298;49.640;20.652;2023-10-19T12:12:07;4.35;;;2.80;;
82628;SDS011;72298;49.640;20.652;2023-10-19T12:14:34;6.45;;;3.28;;
82628;SDS011;72298;49.640;20.652;2023-10-19T12:17:01;5.85;;;3.13;;
82628;SDS011;72298;49.640;20.652;2023-10-19T12:19:29;4.88;;;3.20;;
82628;SDS011;72298;49.640;20.652;2023-10-19T12:21:55;6.80;;;3.83;;
82628;SDS011;72298;49.640;20.652;2023-10-19T12:24:21;6.43;;;3.50;;
82628;SDS011;72298;49.640;20.652;2023-10-19T12:26:47;5.85;;;3.42;;
82628;SDS011;72298;49.640;20.652;2023-10-19T12:29:13;5.88;;;3.35;;
82628;SDS011;72298;49.640;20.652;2023-10-19T12:31:42;7.30;;;3.63;;
82628;SDS011;72298;49.640;20.652;2023-10-19T12:34:08;5.65;;;3.50;;
82628;SDS011;72298;49.640;20.652;2023-10-19T12:36:36;7.65;;;3.55;;
82628;SDS011;72298;49.640;20.652;2023-10-19T12:39:02;5.93;;;3.55;;
82628;SDS011;72298;49.640;20.652;2023-10-19T12:41:32;7.35;;;3.45;;
82628;SDS011;72298;49.640;20.652;2023-10-19T12:43:58;5.68;;;3.63;;
82628;SDS011;72298;49.640;20.652;2023-10-19T12:46:26;5.65;;;4.10;;
82628;SDS011;72298;49.640;20.652;2023-10-19T12:48:55;8.07;;;3.78;;
82628;SDS011;72298;49.640;20.652;2023-10-19T12:51:24;6.18;;;3.75;;
82628;SDS011;72298;49.640;20.652;2023-10-19T12:53:50;7.80;;;3.65;;
82628;SDS011;72298;49.640;20.652;2023-10-19T12:56:22;5.70;;;3.50;;
82628;SDS011;72298;49.640;20.652;2023-10-19T12:58:53;8.02;;;3.40;;
82628;SDS011;72298;49.640;20.652;2023-10-19T13:01:19;5.72;;;3.50;;
82628;SDS011;72298;49.640;20.652;2023-10-19T13:03:46;5.22;;;3.22;;
82628;SDS011;72298;49.640;20.652;2023-10-19T13:06:14;5.38;;;3.33;;
82628;SDS011;72298;49.640;20.652;2023-10-19T13:08:41;7.93;;;4.20;;
82628;SDS011;72298;49.640;20.652;2023-10-19T13:11:07;5.50;;;3.63;;
82628;SDS011;72298;49.640;20.652;2023-10-19T13:13:33;6.68;;;3.80;;
82628;SDS011;72298;49.640;20.652;2023-10-19T13:16:01;7.32;;;3.40;;
82628;SDS011;72298;49.640;20.652;2023-10-19T13:18:31;8.52;;;3.80;;
82628;SDS011;72298;49.640;20.652;2023-10-19T13:20:59;4.93;;;3.63;;
82628;SDS011;72298;49.640;20.652;2023-10-19T13:23:30;6.30;;;4.22;;
82628;SDS011;72298;49.640;20.652;2023-10-19T13:25:58;7.82;;;3.80;;
82628;SDS011;72298;49.640;20.652;2023-10-19T13:28:42;7.07;;;3.67;;
82628;SDS011;72298;49.640;20.652;2023-10-19T13:31:08;6.57;;;3.92;;
82628;SDS011;72298;49.640;20.652;2023-10-19T13:33:34;9.27;;;4.22;;
82628;SDS011;72298;49.640;20.652;2023-10-19T13:36:00;7.13;;;4.00;;
82628;SDS011;72298;49.640;20.652;2023-10-19T13:38:27;8.55;;;4.55;;
82628;SDS011;72298;49.640;20.652;2023-10-19T13:40:53;8.48;;;3.55;;
82628;SDS011;72298;49.640;20.652;2023-10-19T13:43:19;6.25;;;3.95;;
82628;SDS011;72298;49.640;20.652;2023-10-19T13:45:46;6.95;;;3.83;;
82628;SDS011;72298;49.640;20.652;2023-10-19T13:48:13;7.63;;;3.60;;
82628;SDS011;72298;49.640;20.652;2023-10-19T13:50:44;6.00;;;3.63;;
82628;SDS011;72298;49.640;20.652;2023-10-19T13:53:13;7.53;;;3.58;;
82628;SDS011;72298;49.640;20.652;2023-10-19T13:55:39;7.88;;;3.85;;
82628;SDS011;72298;49.640;20.652;2023-10-19T13:58:04;12.27;;;4.25;;
82628;SDS011;72298;49.640;20.652;2023-10-19T14:00:32;11.80;;;4.97;;
82628;SDS011;72298;49.640;20.652;2023-10-19T14:02:57;8.93;;;4.32;;
82628;SDS011;72298;49.640;20.652;2023-10-19T14:05:24;9.07;;;4.68;;
82628;SDS011;72298;49.640;20.652;2023-10-19T14:07:50;9.55;;;4.15;;
82628;SDS011;72298;49.640;20.652;2023-10-19T14:10:17;10.05;;;4.80;;
82628;SDS011;72298;49.640;20.652;2023-10-19T14:12:45;18.77;;;8.93;;
82628;SDS011;72298;49.640;20.652;2023-10-19T14:15:16;16.40;;;7.63;;
82628;SDS011;72298;49.640;20.652;2023-10-19T14:17:43;12.43;;;7.18;;
82628;SDS011;72298;49.640;20.652;2023-10-19T14:20:16;11.00;;;5.95;;
82628;SDS011;72298;49.640;20.652;2023-10-19T14:22:43;9.52;;;4.97;;
82628;SDS011;72298;49.640;20.652;2023-10-19T14:25:14;8.35;;;5.20;;
82628;SDS011;72298;49.640;20.652;2023-10-19T14:30:13;9.65;;;4.82;;
82628;SDS011;72298;49.640;20.652;2023-10-19T14:32:40;9.90;;;5.22;;
82628;SDS011;72298;49.640;20.652;2023-10-19T14:35:13;7.38;;;4.65;;
82628;SDS011;72298;49.640;20.652;2023-10-19T14:37:44;10.18;;;5.45;;
82628;SDS011;72298;49.640;20.652;2023-10-19T14:40:11;8.98;;;5.45;;
82628;SDS011;72298;49.640;20.652;2023-10-19T14:42:40;11.32;;;5.82;;
82628;SDS011;72298;49.640;20.652;2023-10-19T14:45:09;8.68;;;5.10;;
82628;SDS011;72298;49.640;20.652;2023-10-19T14:50:03;9.02;;;4.38;;
82628;SDS011;72298;49.640;20.652;2023-10-19T14:52:29;10.68;;;5.40;;
82628;SDS011;72298;49.640;20.652;2023-10-19T14:54:55;8.60;;;5.03;;
82628;SDS011;72298;49.640;20.652;2023-10-19T14:57:21;7.88;;;4.60;;
82628;SDS011;72298;49.640;20.652;2023-10-19T14:59:47;8.98;;;5.10;;
82628;SDS011;72298;49.640;20.652;2023-10-19T15:02:13;8.73;;;4.85;;
82628;SDS011;72298;49.640;20.652;2023-10-19T15:04:39;8.07;;;5.43;;
82628;SDS011;72298;49.640;20.652;2023-10-19T15:07:05;11.60;;;5.85;;